Aviation Digital Data Service (ADDS)

Output produced by METARs form (0437 UTC 25 April 2017)
found at http://aviationweather.gov/adds/metars/
 
KSBY 250232Z 2503/2524 07014G24KT 3SM -RA OVC005 
     FM250800 08011KT 3SM -SHRA OVC015 WS020/12040KT 
     FM251000 08011G18KT 3SM SHRA OVC015 WS020/11040KT 
     FM251300 08016G25KT 3SM SHRA OVC008 WS020/10050KT 
     FM251600 09018G28KT 3SM SHRA OVC006 WS020/11045KT 
     FM252100 08014G22KT 4SM SHRA OVC007